createdAt,value
2023-05-06T00:02:08.246Z,13.89
2023-05-06T00:04:36.119Z,13.92
2023-05-06T00:07:05.779Z,13.93
2023-05-06T00:09:33.524Z,14.05
2023-05-06T00:12:01.281Z,14.32
2023-05-06T00:14:29.093Z,14.34
2023-05-06T00:16:56.855Z,14.45
2023-05-06T00:19:24.567Z,14.58
2023-05-06T00:21:52.300Z,14.76
2023-05-06T00:24:21.382Z,14.52
2023-05-06T00:26:49.161Z,14.52
2023-05-06T00:29:16.879Z,14.49
2023-05-06T00:31:45.263Z,14.37
2023-05-06T00:34:13.107Z,14.26
2023-05-06T00:36:42.835Z,14.31
2023-05-06T00:39:11.174Z,14.23
2023-05-06T00:41:40.306Z,14.09
2023-05-06T00:44:08.121Z,14.11
2023-05-06T00:46:36.915Z,14.07
2023-05-06T00:49:04.692Z,14.02
2023-05-06T00:51:32.704Z,14.24
2023-05-06T00:54:01.939Z,14.22
2023-05-06T00:56:29.878Z,14.15
2023-05-06T00:58:59.266Z,14.05
2023-05-06T01:01:27.337Z,14.26
2023-05-06T01:03:58.877Z,14.37
2023-05-06T01:06:33.603Z,14.36
2023-05-06T01:09:08.867Z,14.15
2023-05-06T01:11:42.897Z,14.08
2023-05-06T01:14:21.846Z,14.14
2023-05-06T01:16:55.325Z,13.95
2023-05-06T01:19:35.979Z,14.04
2023-05-06T01:22:06.842Z,13.99
2023-05-06T01:24:40.425Z,14.23
2023-05-06T01:27:09.557Z,14.16
2023-05-06T01:29:41.399Z,14.23
2023-05-06T01:32:22.723Z,14.41
2023-05-06T01:34:57.723Z,14.54
2023-05-06T01:37:33.232Z,14.50
2023-05-06T01:40:05.792Z,14.39
2023-05-06T01:42:35.792Z,14.23
2023-05-06T01:45:07.054Z,14.26
2023-05-06T01:47:36.205Z,14.09
2023-05-06T01:50:05.240Z,14.36
2023-05-06T01:52:32.967Z,14.33
2023-05-06T01:55:02.090Z,14.17
2023-05-06T01:57:29.941Z,14.10
2023-05-06T01:59:57.679Z,14.15
2023-05-06T02:02:25.791Z,14.28
2023-05-06T02:04:54.579Z,14.24
2023-05-06T02:07:22.306Z,14.15
2023-05-06T02:09:50.305Z,14.17
2023-05-06T02:12:19.412Z,14.33
2023-05-06T02:14:47.144Z,14.28
2023-05-06T02:17:14.891Z,14.36
2023-05-06T02:19:42.630Z,14.41
2023-05-06T02:22:10.663Z,14.46
2023-05-06T02:24:38.419Z,14.55
2023-05-06T02:27:06.323Z,14.39
2023-05-06T02:29:35.483Z,14.32
2023-05-06T02:32:03.162Z,14.31
2023-05-06T02:34:31.200Z,14.26
2023-05-06T02:36:59.026Z,14.23
2023-05-06T02:39:26.734Z,14.21
2023-05-06T02:41:54.487Z,14.21
2023-05-06T02:44:22.181Z,14.26
2023-05-06T02:46:52.076Z,14.53
2023-05-06T02:49:19.829Z,14.34
2023-05-06T02:51:47.670Z,14.53
2023-05-06T02:54:15.396Z,14.57
2023-05-06T02:56:43.741Z,14.47
2023-05-06T02:59:11.646Z,14.50
2023-05-06T03:01:39.574Z,14.45
2023-05-06T03:04:08.766Z,14.29
2023-05-06T03:06:36.678Z,14.43
2023-05-06T03:09:05.092Z,14.49
2023-05-06T03:11:34.179Z,14.42
2023-05-06T03:14:02.059Z,14.37
2023-05-06T03:16:29.932Z,14.34
2023-05-06T03:18:58.005Z,14.34
2023-05-06T03:21:27.258Z,14.35
2023-05-06T03:23:55.060Z,14.32
2023-05-06T03:26:22.873Z,14.38
2023-05-06T03:28:50.722Z,14.39
2023-05-06T03:31:18.553Z,14.46
2023-05-06T03:33:46.385Z,14.45
2023-05-06T03:36:14.761Z,14.58
2023-05-06T03:38:44.048Z,14.54
2023-05-06T03:41:12.162Z,14.53
2023-05-06T03:43:39.966Z,14.66
2023-05-06T03:46:08.081Z,14.32
2023-05-06T03:48:35.955Z,14.28
2023-05-06T03:51:04.178Z,14.45
2023-05-06T03:53:31.921Z,14.35
2023-05-06T03:56:02.201Z,14.40
2023-05-06T03:58:30.259Z,14.51
2023-05-06T04:01:01.203Z,14.36
2023-05-06T04:03:29.154Z,14.24
2023-05-06T04:05:57.270Z,14.24
2023-05-06T04:08:25.021Z,14.12
2023-05-06T04:10:52.784Z,14.05
2023-05-06T04:13:21.903Z,14.07
2023-05-06T04:15:49.969Z,14.00
2023-05-06T04:18:19.278Z,14.16
2023-05-06T04:20:49.287Z,14.10
2023-05-06T04:23:17.312Z,14.26
2023-05-06T04:25:49.284Z,14.20
2023-05-06T04:28:18.935Z,14.27
2023-05-06T04:30:48.080Z,14.26
2023-05-06T04:33:15.884Z,14.41
2023-05-06T04:35:53.168Z,14.32
2023-05-06T04:38:21.642Z,14.36
2023-05-06T04:40:50.229Z,14.28
2023-05-06T04:43:18.240Z,14.38
2023-05-06T04:45:49.320Z,14.36
2023-05-06T04:48:22.102Z,14.55
2023-05-06T04:50:50.275Z,14.65
2023-05-06T04:53:18.303Z,14.77
2023-05-06T04:55:46.115Z,14.72
2023-05-06T04:58:14.568Z,14.86
2023-05-06T05:00:42.769Z,14.63
2023-05-06T05:03:10.779Z,14.53
2023-05-06T05:05:39.950Z,14.49
2023-05-06T05:08:07.760Z,14.42
2023-05-06T05:10:35.586Z,14.40
2023-05-06T05:13:03.704Z,14.43
2023-05-06T05:15:31.557Z,14.52
2023-05-06T05:17:59.345Z,14.59
2023-05-06T05:20:27.103Z,14.67
2023-05-06T05:22:56.758Z,14.84
2023-05-06T05:25:25.189Z,14.89
2023-05-06T05:27:52.910Z,15.12
2023-05-06T05:30:20.848Z,15.42
2023-05-06T05:32:49.193Z,15.65
2023-05-06T05:35:17.094Z,15.71
2023-05-06T05:37:44.856Z,15.74
2023-05-06T05:40:14.782Z,15.83
2023-05-06T05:42:42.477Z,15.81
2023-05-06T05:45:11.208Z,15.80
2023-05-06T05:47:39.045Z,15.70
2023-05-06T05:50:08.132Z,15.83
2023-05-06T05:52:35.905Z,15.92
2023-05-06T05:55:03.690Z,16.27
2023-05-06T05:57:32.772Z,16.65
2023-05-06T06:00:00.982Z,16.40
2023-05-06T06:02:28.856Z,16.51
2023-05-06T06:04:56.744Z,16.48
2023-05-06T06:07:24.685Z,15.93
2023-05-06T06:09:52.813Z,16.26
2023-05-06T06:12:20.511Z,16.17
2023-05-06T06:14:50.067Z,16.73
2023-05-06T06:17:17.921Z,17.04
2023-05-06T06:19:46.437Z,17.43
2023-05-06T06:22:14.303Z,17.47
2023-05-06T06:24:41.998Z,17.54
2023-05-06T06:27:10.160Z,17.18
2023-05-06T06:29:37.873Z,17.52
2023-05-06T06:32:07.592Z,17.13
2023-05-06T06:34:35.479Z,17.43
2023-05-06T06:37:03.378Z,18.01
2023-05-06T06:39:31.247Z,18.17
2023-05-06T06:41:59.287Z,18.44
2023-05-06T06:44:26.992Z,18.23
2023-05-06T06:46:54.740Z,18.11
2023-05-06T06:49:23.822Z,19.00
2023-05-06T06:51:52.630Z,18.94
2023-05-06T06:54:20.415Z,18.67
2023-05-06T06:56:48.769Z,18.80
2023-05-06T06:59:16.595Z,19.08
2023-05-06T07:01:44.449Z,19.20
2023-05-06T07:04:12.435Z,18.77
2023-05-06T07:06:41.542Z,18.96
2023-05-06T07:09:09.850Z,18.86
2023-05-06T07:11:37.792Z,18.27
2023-05-06T07:14:05.672Z,19.67
2023-05-06T07:16:33.572Z,20.04
2023-05-06T07:19:01.464Z,20.13
2023-05-06T07:21:32.547Z,20.08
2023-05-06T07:24:01.728Z,19.88
2023-05-06T07:26:29.438Z,20.55
2023-05-06T07:28:57.228Z,20.25
2023-05-06T07:31:25.179Z,19.52
2023-05-06T07:33:52.934Z,20.10
2023-05-06T07:36:20.709Z,20.73
2023-05-06T07:38:48.455Z,20.55
2023-05-06T07:41:17.650Z,19.60
2023-05-06T07:43:45.471Z,19.17
2023-05-06T07:46:13.286Z,19.46
2023-05-06T07:48:41.508Z,19.63
2023-05-06T07:51:09.245Z,19.85
2023-05-06T07:53:38.172Z,20.95
2023-05-06T07:56:06.379Z,20.11
2023-05-06T07:58:36.073Z,20.16
2023-05-06T08:01:04.343Z,20.39
2023-05-06T08:03:32.288Z,19.86
2023-05-06T08:06:00.229Z,19.52
2023-05-06T08:08:28.342Z,20.58
2023-05-06T08:10:56.400Z,21.26
2023-05-06T08:13:24.368Z,22.75
2023-05-06T08:15:53.658Z,22.65
2023-05-06T08:18:23.105Z,21.24
2023-05-06T08:20:51.218Z,21.17
2023-05-06T08:23:19.084Z,20.80
2023-05-06T08:25:47.085Z,21.88
2023-05-06T08:28:14.956Z,23.26
2023-05-06T08:30:42.777Z,23.06
2023-05-06T08:33:11.947Z,23.87
2023-05-06T08:35:39.710Z,24.24
2023-05-06T08:38:07.389Z,22.83
2023-05-06T08:40:35.693Z,23.77
2023-05-06T08:43:05.803Z,23.35
2023-05-06T08:45:34.090Z,24.80
2023-05-06T08:48:02.437Z,26.16
2023-05-06T08:50:31.602Z,25.11
2023-05-06T08:52:59.827Z,25.30
2023-05-06T08:55:28.671Z,24.78
2023-05-06T08:57:58.447Z,24.01
2023-05-06T09:00:26.573Z,23.66
2023-05-06T09:02:54.425Z,24.80
2023-05-06T09:05:22.268Z,23.99
2023-05-06T09:07:51.696Z,22.81
2023-05-06T09:10:19.532Z,22.96
2023-05-06T09:12:47.453Z,22.26
2023-05-06T09:15:15.247Z,23.21
2023-05-06T09:17:43.095Z,25.16
2023-05-06T09:20:13.553Z,25.53
2023-05-06T09:22:41.378Z,26.84
2023-05-06T09:25:12.042Z,26.68
2023-05-06T09:27:40.774Z,26.08
2023-05-06T09:30:11.615Z,27.99
2023-05-06T09:32:40.587Z,27.92
2023-05-06T09:35:09.918Z,28.83
2023-05-06T09:37:37.896Z,28.97
2023-05-06T09:40:06.722Z,28.73
2023-05-06T09:42:36.144Z,26.16
2023-05-06T09:45:04.008Z,25.18
2023-05-06T09:47:35.162Z,25.17
2023-05-06T09:50:03.468Z,24.52
2023-05-06T09:52:32.024Z,23.19
2023-05-06T09:55:01.608Z,22.52
2023-05-06T09:57:30.831Z,23.06
2023-05-06T10:00:01.245Z,22.65
2023-05-06T10:02:30.105Z,25.02
2023-05-06T10:05:00.582Z,26.69
2023-05-06T10:07:29.995Z,27.58
2023-05-06T10:09:59.453Z,28.46
2023-05-06T10:12:27.429Z,28.78
2023-05-06T10:14:55.278Z,27.29
2023-05-06T10:17:26.282Z,28.79
2023-05-06T10:19:59.296Z,28.15
2023-05-06T10:22:38.690Z,27.67
2023-05-06T10:25:16.879Z,26.61
2023-05-06T10:27:46.445Z,24.49
2023-05-06T10:30:17.012Z,23.19
2023-05-06T10:32:47.001Z,23.67
2023-05-06T10:35:23.782Z,23.11
2023-05-06T10:37:53.331Z,22.65
2023-05-06T10:40:21.766Z,22.90
2023-05-06T10:42:49.489Z,22.26
2023-05-06T10:45:17.238Z,23.47
2023-05-06T10:48:10.695Z,24.36
2023-05-06T10:50:38.826Z,25.00
2023-05-06T10:53:06.563Z,24.59
2023-05-06T10:55:36.088Z,24.83
2023-05-06T10:58:05.420Z,24.70
2023-05-06T11:00:34.671Z,24.92
2023-05-06T11:03:03.944Z,23.99
2023-05-06T11:05:33.419Z,23.00
2023-05-06T11:08:11.286Z,23.44
2023-05-06T11:10:39.145Z,24.04
2023-05-06T11:13:24.474Z,26.02
2023-05-06T11:15:52.503Z,26.23
2023-05-06T11:18:43.002Z,26.16
2023-05-06T11:21:42.028Z,26.75
2023-05-06T11:24:11.669Z,25.35
2023-05-06T11:26:41.933Z,27.08
2023-05-06T11:29:10.126Z,28.45
2023-05-06T11:31:42.849Z,29.63
2023-05-06T11:34:13.482Z,28.88
2023-05-06T11:36:55.981Z,30.06
2023-05-06T11:39:23.821Z,27.97
2023-05-06T11:41:53.904Z,27.04
2023-05-06T11:44:28.911Z,25.43
2023-05-06T11:47:01.408Z,27.63
2023-05-06T11:49:29.373Z,26.91
2023-05-06T11:51:58.540Z,27.91
2023-05-06T11:54:27.589Z,27.90
2023-05-06T11:56:57.409Z,27.36
2023-05-06T11:59:30.212Z,29.06
2023-05-06T12:01:59.480Z,29.86
2023-05-06T12:04:27.610Z,27.69
2023-05-06T12:06:57.138Z,26.38
2023-05-06T12:09:26.831Z,27.08
2023-05-06T12:11:55.520Z,27.65
2023-05-06T12:14:23.685Z,26.06
2023-05-06T12:16:52.409Z,25.38
2023-05-06T12:19:22.359Z,24.51
2023-05-06T12:21:50.102Z,23.84
2023-05-06T12:24:30.114Z,23.71
2023-05-06T12:26:58.204Z,24.99
2023-05-06T12:29:25.980Z,24.77
2023-05-06T12:32:08.392Z,25.03
2023-05-06T12:34:40.255Z,24.95
2023-05-06T12:37:08.575Z,25.31
2023-05-06T12:39:38.757Z,27.26
2023-05-06T12:42:07.715Z,28.17
2023-05-06T12:44:37.433Z,28.30
2023-05-06T12:47:07.412Z,29.36
2023-05-06T12:49:49.527Z,26.61
2023-05-06T12:52:18.508Z,27.96
2023-05-06T12:54:48.284Z,27.84
2023-05-06T12:57:16.300Z,26.36
2023-05-06T12:59:45.302Z,25.77
2023-05-06T13:02:13.436Z,26.91
2023-05-06T13:04:41.938Z,27.63
2023-05-06T13:07:09.704Z,27.60
2023-05-06T13:09:37.745Z,26.61
2023-05-06T13:12:07.592Z,26.33
2023-05-06T13:14:36.919Z,25.56
2023-05-06T13:17:06.754Z,25.40
2023-05-06T13:19:34.924Z,24.56
2023-05-06T13:22:02.759Z,25.12
2023-05-06T13:24:30.903Z,24.46
2023-05-06T13:27:00.599Z,24.51
2023-05-06T13:29:30.690Z,24.56
2023-05-06T13:31:58.673Z,24.05
2023-05-06T13:34:26.540Z,25.62
2023-05-06T13:36:54.574Z,25.73
2023-05-06T13:39:22.614Z,25.52
2023-05-06T13:41:51.033Z,26.36
2023-05-06T13:44:19.764Z,28.49
2023-05-06T13:46:49.593Z,27.46
2023-05-06T13:49:17.873Z,28.35
2023-05-06T13:51:45.927Z,27.65
2023-05-06T13:54:13.645Z,28.91
2023-05-06T13:56:41.441Z,29.55
2023-05-06T13:59:11.137Z,29.83
2023-05-06T14:01:39.303Z,28.31
2023-05-06T14:04:08.478Z,26.25
2023-05-06T14:06:36.271Z,28.19
2023-05-06T14:09:04.711Z,28.48
2023-05-06T14:11:32.555Z,28.42
2023-05-06T14:14:00.610Z,27.46
2023-05-06T14:16:28.423Z,27.88
2023-05-06T14:18:56.260Z,27.42
2023-05-06T14:21:25.818Z,26.88
2023-05-06T14:23:53.580Z,25.76
2023-05-06T14:26:21.372Z,26.28
2023-05-06T14:28:49.108Z,26.02
2023-05-06T14:31:16.982Z,26.20
2023-05-06T14:33:44.732Z,26.20
2023-05-06T14:36:12.541Z,26.60
2023-05-06T14:38:41.619Z,26.67
2023-05-06T14:41:09.287Z,26.46
2023-05-06T14:43:37.224Z,26.45
2023-05-06T14:46:05.096Z,26.42
2023-05-06T14:48:32.954Z,26.17
2023-05-06T14:51:00.799Z,26.12
2023-05-06T14:53:28.488Z,25.83
2023-05-06T14:55:57.632Z,26.18
2023-05-06T14:58:25.752Z,26.56
2023-05-06T15:00:53.596Z,25.80
2023-05-06T15:03:21.386Z,25.47
2023-05-06T15:05:50.628Z,24.79
2023-05-06T15:08:18.435Z,25.71
2023-05-06T15:10:46.538Z,25.18
2023-05-06T15:13:15.982Z,24.41
2023-05-06T15:15:43.791Z,24.19
2023-05-06T15:18:13.264Z,24.56
2023-05-06T15:20:41.471Z,24.56
2023-05-06T15:23:09.199Z,24.38
2023-05-06T15:25:37.103Z,24.12
2023-05-06T15:28:06.560Z,24.08
2023-05-06T15:30:37.655Z,24.13
2023-05-06T15:33:06.279Z,24.56
2023-05-06T15:35:34.113Z,23.99
2023-05-06T15:38:04.329Z,24.28
2023-05-06T15:40:32.134Z,24.28
2023-05-06T15:42:59.927Z,24.40
2023-05-06T15:45:28.150Z,23.77
2023-05-06T15:47:57.540Z,23.79
2023-05-06T15:52:59.375Z,23.33
2023-05-06T15:55:27.175Z,23.47
2023-05-06T15:57:55.814Z,23.03
2023-05-06T16:00:24.029Z,23.61
2023-05-06T16:02:51.835Z,23.82
2023-05-06T16:05:21.123Z,23.33
2023-05-06T16:07:49.644Z,23.50
2023-05-06T16:10:17.792Z,23.06
2023-05-06T16:12:45.990Z,23.24
2023-05-06T16:15:13.825Z,22.98
2023-05-06T16:17:41.857Z,22.92
2023-05-06T16:20:11.215Z,23.18
2023-05-06T16:22:41.402Z,23.38
2023-05-06T16:25:09.413Z,23.48
2023-05-06T16:27:37.421Z,23.20
2023-05-06T16:30:05.943Z,22.99
2023-05-06T16:32:33.802Z,22.67
2023-05-06T16:35:01.602Z,22.83
2023-05-06T16:37:29.473Z,23.09
2023-05-06T16:39:58.562Z,23.10
2023-05-06T16:42:26.651Z,23.15
2023-05-06T16:44:54.436Z,23.07
2023-05-06T16:47:24.084Z,23.08
2023-05-06T16:49:52.080Z,22.95
2023-05-06T16:52:20.164Z,23.09
2023-05-06T16:54:47.841Z,22.87
2023-05-06T16:57:17.169Z,22.78
2023-05-06T16:59:44.936Z,22.68
2023-05-06T17:02:12.801Z,22.52
2023-05-06T17:04:40.620Z,22.30
2023-05-06T17:07:10.986Z,22.49
2023-05-06T17:09:38.790Z,22.61
2023-05-06T17:12:07.455Z,22.62
2023-05-06T17:14:36.748Z,22.62
2023-05-06T17:17:05.384Z,22.71
2023-05-06T17:19:34.434Z,22.29
2023-05-06T17:22:02.193Z,22.34
2023-05-06T17:24:29.964Z,22.33
2023-05-06T17:26:57.879Z,22.16
2023-05-06T17:29:25.805Z,21.58
2023-05-06T17:31:54.997Z,21.63
2023-05-06T17:34:22.858Z,21.74
2023-05-06T17:36:50.584Z,21.42
2023-05-06T17:39:18.423Z,21.07
2023-05-06T17:41:46.123Z,20.68
2023-05-06T17:44:16.501Z,20.52
2023-05-06T17:46:45.423Z,20.39
2023-05-06T17:49:16.929Z,20.28
2023-05-06T17:51:46.031Z,19.95
2023-05-06T17:54:13.822Z,19.63
2023-05-06T17:56:41.673Z,19.85
2023-05-06T17:59:09.486Z,19.89
2023-05-06T18:01:37.373Z,19.77
2023-05-06T18:04:05.227Z,19.85
2023-05-06T18:06:34.586Z,19.90
2023-05-06T18:09:02.396Z,19.65
2023-05-06T18:11:30.204Z,19.80
2023-05-06T18:13:58.180Z,19.82
2023-05-06T18:16:26.139Z,19.60
2023-05-06T18:18:53.965Z,19.50
2023-05-06T18:21:22.284Z,19.35
2023-05-06T18:23:53.585Z,19.27
2023-05-06T18:26:43.351Z,19.20
2023-05-06T18:29:12.289Z,19.09
2023-05-06T18:31:40.241Z,19.09
2023-05-06T18:34:08.029Z,18.99
2023-05-06T18:36:36.536Z,18.82
2023-05-06T18:39:05.901Z,19.01
2023-05-06T18:41:34.028Z,18.67
2023-05-06T18:44:03.005Z,18.64
2023-05-06T18:46:30.830Z,18.27
2023-05-06T18:48:59.086Z,18.51
2023-05-06T18:51:27.474Z,18.37
2023-05-06T18:53:55.298Z,18.39
2023-05-06T18:56:24.688Z,18.47
2023-05-06T18:58:52.774Z,18.33
2023-05-06T19:01:20.833Z,18.20
2023-05-06T19:03:48.686Z,18.07
2023-05-06T19:06:16.439Z,18.27
2023-05-06T19:08:44.392Z,17.98
2023-05-06T19:11:16.520Z,18.12
2023-05-06T19:13:46.379Z,17.86
2023-05-06T19:16:14.784Z,17.90
2023-05-06T19:18:42.790Z,17.87
2023-05-06T19:21:10.930Z,17.78
2023-05-06T19:23:38.893Z,17.86
2023-05-06T19:26:07.319Z,17.81
2023-05-06T19:28:35.368Z,17.89
2023-05-06T19:31:07.593Z,18.04
2023-05-06T19:33:35.430Z,17.98
2023-05-06T19:36:03.233Z,17.97
2023-05-06T19:38:31.076Z,17.78
2023-05-06T19:40:58.806Z,17.81
2023-05-06T19:43:26.916Z,17.81
2023-05-06T19:45:54.702Z,17.70
2023-05-06T19:48:24.233Z,17.58
2023-05-06T19:50:53.972Z,17.47
2023-05-06T19:53:22.761Z,17.33
2023-05-06T19:55:50.907Z,17.16
2023-05-06T19:58:19.328Z,17.09
2023-05-06T20:00:47.086Z,16.88
2023-05-06T20:03:15.003Z,16.76
2023-05-06T20:05:44.132Z,16.55
2023-05-06T20:08:12.368Z,16.76
2023-05-06T20:10:40.104Z,16.84
2023-05-06T20:13:07.924Z,16.80
2023-05-06T20:15:36.367Z,16.53
2023-05-06T20:18:04.412Z,16.35
2023-05-06T20:20:34.343Z,16.02
2023-05-06T20:23:03.829Z,15.83
2023-05-06T20:25:31.741Z,15.72
2023-05-06T20:28:00.511Z,15.81
2023-05-06T20:30:28.357Z,15.65
2023-05-06T20:32:56.234Z,15.45
2023-05-06T20:35:24.150Z,15.29
2023-05-06T20:37:51.940Z,15.43
2023-05-06T20:40:21.258Z,15.37
2023-05-06T20:42:49.443Z,15.22
2023-05-06T20:45:18.172Z,15.18
2023-05-06T20:47:46.007Z,15.06
2023-05-06T20:50:17.050Z,14.95
2023-05-06T20:52:45.997Z,14.88
2023-05-06T20:55:15.255Z,15.04
2023-05-06T20:57:45.316Z,15.16
2023-05-06T21:00:14.512Z,15.08
2023-05-06T21:02:42.496Z,15.06
2023-05-06T21:05:11.760Z,15.12
2023-05-06T21:07:39.901Z,15.12
2023-05-06T21:10:08.305Z,15.08
2023-05-06T21:12:36.075Z,15.01
2023-05-06T21:15:06.272Z,14.92
2023-05-06T21:17:34.107Z,14.93
2023-05-06T21:20:03.036Z,14.84
2023-05-06T21:22:32.054Z,14.64
2023-05-06T21:24:59.903Z,14.54
2023-05-06T21:27:27.825Z,14.60
2023-05-06T21:29:55.541Z,14.55
2023-05-06T21:32:24.766Z,14.72
2023-05-06T21:34:52.524Z,14.45
2023-05-06T21:37:20.328Z,14.55
2023-05-06T21:39:48.032Z,14.53
2023-05-06T21:42:15.744Z,14.62
2023-05-06T21:44:43.527Z,14.63
2023-05-06T21:47:11.278Z,14.59
2023-05-06T21:49:40.400Z,14.78
2023-05-06T21:52:08.196Z,14.69
2023-05-06T21:54:35.901Z,14.85
2023-05-06T21:57:07.890Z,14.79
2023-05-06T21:59:36.213Z,14.73
2023-05-06T22:02:04.524Z,14.52
2023-05-06T22:04:32.526Z,14.45
2023-05-06T22:07:01.729Z,14.30
2023-05-06T22:09:29.511Z,14.30
2023-05-06T22:11:57.730Z,14.21
2023-05-06T22:14:30.211Z,14.10
2023-05-06T22:17:05.367Z,14.11
2023-05-06T22:19:33.160Z,14.26
2023-05-06T22:22:02.645Z,14.40
2023-05-06T22:24:30.422Z,14.36
2023-05-06T22:26:58.258Z,14.24
2023-05-06T22:29:26.068Z,14.06
2023-05-06T22:31:53.856Z,14.21
2023-05-06T22:34:21.722Z,14.34
2023-05-06T22:36:49.485Z,14.17
2023-05-06T22:39:18.737Z,14.27
2023-05-06T22:41:48.398Z,14.28
2023-05-06T22:44:16.148Z,14.25
2023-05-06T22:46:44.043Z,14.23
2023-05-06T22:49:11.741Z,14.18
2023-05-06T22:51:39.567Z,14.16
2023-05-06T22:54:07.320Z,14.11
2023-05-06T22:56:36.403Z,14.07
2023-05-06T22:59:04.193Z,13.83
2023-05-06T23:01:33.186Z,13.85
2023-05-06T23:04:01.267Z,13.88
2023-05-06T23:06:30.925Z,13.93
2023-05-06T23:08:58.771Z,13.91
2023-05-06T23:11:26.777Z,13.73
2023-05-06T23:13:55.939Z,13.85
2023-05-06T23:16:23.654Z,13.86
2023-05-06T23:18:51.428Z,13.86
2023-05-06T23:21:19.232Z,13.82
2023-05-06T23:23:47.002Z,14.00
2023-05-06T23:26:14.858Z,13.90
2023-05-06T23:28:42.692Z,14.00
2023-05-06T23:31:11.861Z,13.82
2023-05-06T23:33:39.716Z,13.82
2023-05-06T23:36:08.105Z,13.91
2023-05-06T23:38:36.264Z,13.93
2023-05-06T23:41:04.023Z,13.95
2023-05-06T23:43:31.715Z,14.04
2023-05-06T23:45:59.530Z,13.95
2023-05-06T23:48:28.728Z,13.94
2023-05-06T23:50:56.521Z,14.00
2023-05-06T23:53:24.400Z,14.01
2023-05-06T23:55:52.110Z,14.05
2023-05-06T23:58:19.816Z,14.15
